createdAt,value
2023-01-13T00:01:55.407Z,13.85
2023-01-13T00:06:57.914Z,11.68
2023-01-13T00:12:00.612Z,19.57
2023-01-13T00:17:04.734Z,13.03
2023-01-13T00:22:07.522Z,12.20
2023-01-13T00:27:10.030Z,18.77
2023-01-13T00:32:14.126Z,15.70
2023-01-13T00:37:16.800Z,17.10
2023-01-13T00:42:36.949Z,14.60
2023-01-13T00:47:40.761Z,15.27
2023-01-13T00:52:43.174Z,15.95
2023-01-13T00:57:45.593Z,13.75
2023-01-13T01:02:49.391Z,18.88
2023-01-13T01:07:51.827Z,13.73
2023-01-13T01:12:54.236Z,19.77
2023-01-13T01:17:57.977Z,20.60
2023-01-13T01:23:00.845Z,16.90
2023-01-13T01:28:03.320Z,13.80
2023-01-13T01:33:07.130Z,13.82
2023-01-13T01:38:09.655Z,16.65
2023-01-13T01:43:32.806Z,20.40
2023-01-13T01:48:38.644Z,15.60
2023-01-13T01:53:41.825Z,22.58
2023-01-13T01:58:47.094Z,19.95
2023-01-13T02:03:56.312Z,25.20
2023-01-13T02:08:59.316Z,21.92
2023-01-13T02:14:01.748Z,22.77
2023-01-13T02:19:08.547Z,21.95
2023-01-13T02:24:37.858Z,21.90
2023-01-13T02:30:07.208Z,26.05
2023-01-13T02:35:14.374Z,20.80
2023-01-13T02:40:20.930Z,22.33
2023-01-13T02:45:26.590Z,26.45
2023-01-13T02:50:31.903Z,20.88
2023-01-13T02:55:36.289Z,25.75
2023-01-13T03:00:40.255Z,27.98
2023-01-13T03:05:43.468Z,21.67
2023-01-13T03:10:51.726Z,17.42
2023-01-13T03:16:06.917Z,22.10
2023-01-13T03:21:13.236Z,25.20
2023-01-13T03:26:17.402Z,22.15
2023-01-13T03:31:23.650Z,23.73
2023-01-13T03:36:27.787Z,17.63
2023-01-13T03:41:31.602Z,21.25
2023-01-13T03:46:39.876Z,18.95
2023-01-13T03:51:44.566Z,29.02
2023-01-13T03:56:48.283Z,18.75
2023-01-13T04:01:55.333Z,17.83
2023-01-13T04:07:02.145Z,15.80
2023-01-13T04:12:08.662Z,23.33
2023-01-13T04:17:12.484Z,27.15
2023-01-13T04:22:14.896Z,15.40
2023-01-13T04:27:17.368Z,17.23
2023-01-13T04:32:21.216Z,18.05
2023-01-13T04:37:23.654Z,32.85
2023-01-13T04:42:26.444Z,15.63
2023-01-13T04:47:30.213Z,17.03
2023-01-13T04:52:32.658Z,15.30
2023-01-13T04:57:35.209Z,14.20
2023-01-13T05:02:39.007Z,22.53
2023-01-13T05:07:41.445Z,27.58
2023-01-13T05:13:01.459Z,17.77
2023-01-13T05:18:05.505Z,21.77
2023-01-13T05:23:25.770Z,14.23
2023-01-13T05:28:31.992Z,15.07
2023-01-13T05:33:36.599Z,17.65
2023-01-13T05:38:39.018Z,10.15
2023-01-13T05:43:41.524Z,10.07
2023-01-13T05:48:45.509Z,9.00
2023-01-13T05:53:47.944Z,8.02
2023-01-13T05:58:50.387Z,9.82
2023-01-13T06:03:54.145Z,4.90
2023-01-13T06:08:56.856Z,11.10
2023-01-13T06:13:59.331Z,4.83
2023-01-13T06:19:03.064Z,10.90
2023-01-13T06:24:06.162Z,10.27
2023-01-13T06:29:10.077Z,10.15
2023-01-13T06:34:15.404Z,8.60
2023-01-13T06:39:19.642Z,12.75
2023-01-13T06:44:22.725Z,8.00
2023-01-13T06:49:26.487Z,11.93
2023-01-13T06:54:28.890Z,15.23
2023-01-13T06:59:34.255Z,10.00
2023-01-13T07:04:38.038Z,9.52
2023-01-13T07:09:40.536Z,11.60
2023-01-13T07:15:00.409Z,23.40
2023-01-13T07:20:04.371Z,19.05
2023-01-13T07:25:07.404Z,9.43
2023-01-13T07:30:10.545Z,11.20
2023-01-13T07:35:14.416Z,9.35
2023-01-13T07:40:17.047Z,11.85
2023-01-13T07:45:19.517Z,12.03
2023-01-13T07:50:23.823Z,11.88
2023-01-13T07:55:26.201Z,12.75
2023-01-13T08:00:28.765Z,10.77
2023-01-13T08:05:32.540Z,9.93
2023-01-13T08:10:34.957Z,13.70
2023-01-13T08:15:37.441Z,14.52
2023-01-13T08:20:41.176Z,13.70
2023-01-13T08:25:43.610Z,13.43
2023-01-13T08:30:46.066Z,13.90
2023-01-13T08:35:52.590Z,20.77
2023-01-13T08:40:55.085Z,19.70
2023-01-13T08:45:58.390Z,16.03
2023-01-13T08:51:06.715Z,14.93
2023-01-13T08:56:10.881Z,10.30
2023-01-13T09:01:14.950Z,14.23
2023-01-13T09:06:18.915Z,14.43
2023-01-13T09:11:39.944Z,12.68
2023-01-13T09:16:42.401Z,17.25
2023-01-13T09:21:46.255Z,12.40
2023-01-13T09:26:48.717Z,19.38
2023-01-13T09:31:51.141Z,18.47
2023-01-13T09:36:55.011Z,17.27
2023-01-13T09:42:15.880Z,18.08
2023-01-13T09:47:21.888Z,16.02
2023-01-13T09:52:27.181Z,10.77
2023-01-13T09:57:31.071Z,16.95
2023-01-13T10:02:39.306Z,25.90
2023-01-13T10:07:48.871Z,13.15
2023-01-13T10:13:09.455Z,27.80
2023-01-13T10:18:14.706Z,17.33
2023-01-13T10:23:34.346Z,13.40
2023-01-13T10:28:36.790Z,15.25
2023-01-13T10:33:39.196Z,14.55
2023-01-13T10:38:43.775Z,13.73
2023-01-13T10:43:46.448Z,13.82
2023-01-13T10:48:52.960Z,12.53
2023-01-13T10:53:58.243Z,13.98
2023-01-13T10:59:12.926Z,13.57
2023-01-13T11:04:32.439Z,14.73
2023-01-13T11:09:36.224Z,17.52
2023-01-13T11:14:41.556Z,17.27
2023-01-13T11:19:48.659Z,9.05
2023-01-13T11:24:54.185Z,12.27
2023-01-13T11:30:00.952Z,12.93
2023-01-13T11:35:05.469Z,14.25
2023-01-13T11:40:14.491Z,19.27
2023-01-13T11:45:21.073Z,14.90
2023-01-13T11:50:26.972Z,17.27
2023-01-13T11:55:35.525Z,12.18
2023-01-13T12:00:40.831Z,15.25
2023-01-13T12:05:44.362Z,15.98
2023-01-13T12:10:56.428Z,14.20
2023-01-13T12:16:04.774Z,19.40
2023-01-13T12:21:12.963Z,15.77
2023-01-13T12:26:17.573Z,12.15
2023-01-13T12:31:20.531Z,14.45
2023-01-13T12:36:26.040Z,20.20
2023-01-13T12:41:34.250Z,17.33
2023-01-13T12:46:53.141Z,10.27
2023-01-13T12:52:18.263Z,7.78
2023-01-13T12:57:22.774Z,19.40
2023-01-13T13:02:26.914Z,12.38
2023-01-13T13:07:41.200Z,14.38
2023-01-13T13:13:16.128Z,12.07
2023-01-13T13:23:37.728Z,11.45
2023-01-13T13:28:45.357Z,17.63
2023-01-13T13:33:51.605Z,11.77
2023-01-13T13:39:19.211Z,15.32
2023-01-13T13:44:44.221Z,12.05
2023-01-13T13:49:50.169Z,11.73
2023-01-13T13:54:53.398Z,13.98
2023-01-13T13:59:58.990Z,15.52
2023-01-13T14:05:08.374Z,12.80
2023-01-13T14:10:14.261Z,9.30
2023-01-13T14:15:28.937Z,11.98
2023-01-13T14:20:31.605Z,9.85
2023-01-13T14:25:37.057Z,16.77
2023-01-13T14:30:41.076Z,9.68
2023-01-13T14:35:58.405Z,12.45
2023-01-13T14:41:09.943Z,8.57
2023-01-13T14:46:14.131Z,6.47
2023-01-13T14:51:22.531Z,9.23
2023-01-13T14:56:42.471Z,9.50
2023-01-13T15:01:46.312Z,8.77
2023-01-13T15:06:56.367Z,9.98
2023-01-13T15:11:58.898Z,7.85
2023-01-13T15:17:03.317Z,8.73
2023-01-13T15:22:05.733Z,11.48
2023-01-13T15:27:15.314Z,8.68
2023-01-13T15:32:20.232Z,9.13
2023-01-13T15:37:24.452Z,5.78
2023-01-13T15:42:44.373Z,8.55
2023-01-13T15:47:48.295Z,11.85
2023-01-13T15:52:50.699Z,8.18
2023-01-13T15:57:53.125Z,8.77
2023-01-13T16:02:56.882Z,9.23
2023-01-13T16:07:59.299Z,8.52
2023-01-13T16:13:01.789Z,12.50
2023-01-13T16:18:05.884Z,7.77
2023-01-13T16:23:08.348Z,8.07
2023-01-13T16:28:19.632Z,12.27
2023-01-13T16:33:23.416Z,10.82
2023-01-13T16:38:25.819Z,12.65
2023-01-13T16:43:28.240Z,6.85
2023-01-13T16:48:31.999Z,11.25
2023-01-13T16:53:34.451Z,10.57
2023-01-13T16:58:36.812Z,7.85
2023-01-13T17:03:40.564Z,10.90
2023-01-13T17:08:43.117Z,9.73
2023-01-13T17:13:45.538Z,9.07
2023-01-13T17:18:49.647Z,12.55
2023-01-13T17:23:52.531Z,10.35
2023-01-13T17:28:54.959Z,9.98
2023-01-13T17:33:58.916Z,8.93
2023-01-13T17:39:01.333Z,11.63
2023-01-13T17:44:03.761Z,12.13
2023-01-13T17:49:07.464Z,12.15
2023-01-13T17:54:12.045Z,7.38
2023-01-13T17:59:15.324Z,11.82
2023-01-13T18:04:19.650Z,10.88
2023-01-13T18:09:23.336Z,13.13
2023-01-13T18:14:25.760Z,6.75
2023-01-13T18:19:47.445Z,8.85
2023-01-13T18:25:07.294Z,6.50
2023-01-13T18:30:10.115Z,7.72
2023-01-13T18:35:13.916Z,8.75
2023-01-13T18:40:16.534Z,8.50
2023-01-13T18:45:19.407Z,6.17
2023-01-13T18:50:23.304Z,9.75
2023-01-13T18:55:27.101Z,6.88
2023-01-13T19:00:31.061Z,4.88
2023-01-13T19:05:35.396Z,5.20
2023-01-13T19:10:39.790Z,6.63
2023-01-13T19:15:42.221Z,8.07
2023-01-13T19:20:46.005Z,8.50
2023-01-13T19:25:48.412Z,6.57
2023-01-13T19:30:51.790Z,5.13
2023-01-13T19:40:59.429Z,10.05
2023-01-13T19:46:01.899Z,8.50
2023-01-13T19:51:04.723Z,8.07
2023-01-13T19:56:08.733Z,6.47
2023-01-13T20:01:16.122Z,5.53
2023-01-13T20:06:18.595Z,6.63
2023-01-13T20:11:22.358Z,9.75
2023-01-13T20:16:24.875Z,9.48
2023-01-13T20:21:27.456Z,7.20
2023-01-13T20:26:31.205Z,13.77
2023-01-13T20:31:33.663Z,9.57
2023-01-13T20:36:38.911Z,8.35
2023-01-13T20:42:01.203Z,9.35
2023-01-13T20:47:04.091Z,8.02
2023-01-13T20:52:09.608Z,9.38
2023-01-13T20:57:13.513Z,5.30
2023-01-13T21:02:17.311Z,6.90
2023-01-13T21:07:19.758Z,10.00
2023-01-13T21:12:40.839Z,10.10
2023-01-13T21:18:00.699Z,7.80
2023-01-13T21:23:03.921Z,9.32
2023-01-13T21:28:10.233Z,5.53
2023-01-13T21:33:13.771Z,8.90
2023-01-13T21:43:37.161Z,10.77
2023-01-13T21:48:39.538Z,4.68
2023-01-13T21:53:41.929Z,8.30
2023-01-13T21:58:45.767Z,4.38
2023-01-13T22:04:05.083Z,5.95
2023-01-13T22:09:07.685Z,7.38
2023-01-13T22:14:13.800Z,5.37
2023-01-13T22:19:18.113Z,8.45
2023-01-13T22:24:21.031Z,7.18
2023-01-13T22:29:24.784Z,7.47
2023-01-13T22:34:27.181Z,6.53
2023-01-13T22:39:29.858Z,6.40
2023-01-13T22:44:33.991Z,5.07
2023-01-13T22:49:36.466Z,16.95
2023-01-13T22:54:38.860Z,9.60
2023-01-13T22:59:42.683Z,9.18
2023-01-13T23:04:45.086Z,12.05
2023-01-13T23:09:47.874Z,11.43
2023-01-13T23:14:51.745Z,12.57
2023-01-13T23:19:54.183Z,8.02
2023-01-13T23:24:56.591Z,8.13
2023-01-13T23:30:00.277Z,8.63
2023-01-13T23:35:02.732Z,9.25
2023-01-13T23:40:05.572Z,13.00
2023-01-13T23:45:10.575Z,8.05
2023-01-13T23:50:12.945Z,12.27
2023-01-13T23:55:15.380Z,10.77
